sensor_id;sensor_type;location;lat;lon;timestamp;pressure;altitude;pressure_sealevel;temperature;humidity
31911;BME280;18457;52.432;16.914;2022-09-12T00:01:12;100520.17;;;13.63;92.07
31911;BME280;18457;52.432;16.914;2022-09-12T00:03:46;100515.04;;;13.49;92.79
31911;BME280;18457;52.432;16.914;2022-09-12T00:06:21;100514.67;;;13.43;93.25
31911;BME280;18457;52.432;16.914;2022-09-12T00:08:55;100515.16;;;13.45;93.19
31911;BME280;18457;52.432;16.914;2022-09-12T00:11:27;100515.39;;;13.44;92.98
31911;BME280;18457;52.432;16.914;2022-09-12T00:14:00;100517.48;;;13.41;92.96
31911;BME280;18457;52.432;16.914;2022-09-12T00:16:34;100514.46;;;13.50;92.44
31911;BME280;18457;52.432;16.914;2022-09-12T00:19:07;100509.74;;;13.55;91.76
31911;BME280;18457;52.432;16.914;2022-09-12T00:21:38;100510.49;;;13.44;92.39
31911;BME280;18457;52.432;16.914;2022-09-12T00:24:11;100511.88;;;13.35;92.80
31911;BME280;18457;52.432;16.914;2022-09-12T00:26:41;100509.96;;;13.33;92.99
31911;BME280;18457;52.432;16.914;2022-09-12T00:29:16;100509.56;;;13.44;92.59
31911;BME280;18457;52.432;16.914;2022-09-12T00:31:49;100504.67;;;13.49;91.55
31911;BME280;18457;52.432;16.914;2022-09-12T00:34:20;100506.67;;;13.44;91.80
31911;BME280;18457;52.432;16.914;2022-09-12T00:36:52;100509.04;;;13.44;91.60
31911;BME280;18457;52.432;16.914;2022-09-12T00:39:24;100511.27;;;13.32;92.34
31911;BME280;18457;52.432;16.914;2022-09-12T00:41:56;100513.66;;;13.31;92.36
31911;BME280;18457;52.432;16.914;2022-09-12T00:44:46;100515.05;;;13.33;92.46
31911;BME280;18457;52.432;16.914;2022-09-12T00:47:22;100515.27;;;13.31;92.38
31911;BME280;18457;52.432;16.914;2022-09-12T00:49:59;100512.90;;;13.37;91.95
31911;BME280;18457;52.432;16.914;2022-09-12T00:52:36;100513.77;;;13.33;92.39
31911;BME280;18457;52.432;16.914;2022-09-12T00:55:14;100512.55;;;13.26;93.04
31911;BME280;18457;52.432;16.914;2022-09-12T00:57:51;100514.67;;;13.33;92.42
31911;BME280;18457;52.432;16.914;2022-09-12T01:00:26;100511.48;;;13.26;92.63
31911;BME280;18457;52.432;16.914;2022-09-12T01:03:02;100511.65;;;13.26;92.76
31911;BME280;18457;52.432;16.914;2022-09-12T01:05:38;100514.35;;;13.32;92.27
31911;BME280;18457;52.432;16.914;2022-09-12T01:08:13;100510.60;;;13.41;91.74
31911;BME280;18457;52.432;16.914;2022-09-12T01:10:45;100506.99;;;13.45;91.20
31911;BME280;18457;52.432;16.914;2022-09-12T01:13:18;100504.03;;;13.37;91.48
31911;BME280;18457;52.432;16.914;2022-09-12T01:15:49;100508.52;;;13.27;92.15
31911;BME280;18457;52.432;16.914;2022-09-12T01:18:27;100507.83;;;13.09;93.31
31911;BME280;18457;52.432;16.914;2022-09-12T01:21:15;100510.65;;;13.06;93.45
31911;BME280;18457;52.432;16.914;2022-09-12T01:24:08;100514.52;;;13.04;93.39
31911;BME280;18457;52.432;16.914;2022-09-12T01:27:01;100514.80;;;13.12;93.03
31911;BME280;18457;52.432;16.914;2022-09-12T01:32:55;100517.34;;;13.12;92.49
31911;BME280;18457;52.432;16.914;2022-09-12T01:35:34;100517.75;;;13.05;93.07
31911;BME280;18457;52.432;16.914;2022-09-12T01:38:13;100519.86;;;13.13;92.50
31911;BME280;18457;52.432;16.914;2022-09-12T01:40:54;100522.69;;;13.04;92.83
31911;BME280;18457;52.432;16.914;2022-09-12T01:43:32;100522.04;;;12.95;93.32
31911;BME280;18457;52.432;16.914;2022-09-12T01:46:08;100521.15;;;12.95;93.77
31911;BME280;18457;52.432;16.914;2022-09-12T01:48:45;100518.52;;;12.97;93.49
31911;BME280;18457;52.432;16.914;2022-09-12T01:51:20;100522.05;;;13.01;93.31
31911;BME280;18457;52.432;16.914;2022-09-12T01:53:59;100519.75;;;12.99;93.75
31911;BME280;18457;52.432;16.914;2022-09-12T01:56:37;100518.95;;;13.01;93.50
31911;BME280;18457;52.432;16.914;2022-09-12T01:59:15;100523.08;;;12.91;93.89
31911;BME280;18457;52.432;16.914;2022-09-12T02:01:52;100521.70;;;12.83;94.69
31911;BME280;18457;52.432;16.914;2022-09-12T02:04:30;100520.40;;;12.96;94.26
31911;BME280;18457;52.432;16.914;2022-09-12T02:07:10;100516.14;;;12.87;94.73
31911;BME280;18457;52.432;16.914;2022-09-12T02:09:48;100522.59;;;12.89;94.81
31911;BME280;18457;52.432;16.914;2022-09-12T02:12:26;100520.34;;;12.80;95.12
31911;BME280;18457;52.432;16.914;2022-09-12T02:15:03;100522.92;;;12.84;95.34
31911;BME280;18457;52.432;16.914;2022-09-12T02:17:40;100527.06;;;12.85;95.15
31911;BME280;18457;52.432;16.914;2022-09-12T02:20:16;100522.83;;;12.93;94.76
31911;BME280;18457;52.432;16.914;2022-09-12T02:23:11;100521.97;;;12.80;95.85
31911;BME280;18457;52.432;16.914;2022-09-12T02:25:47;100518.73;;;12.91;95.17
31911;BME280;18457;52.432;16.914;2022-09-12T02:28:22;100519.71;;;12.94;95.12
31911;BME280;18457;52.432;16.914;2022-09-12T02:31:00;100517.80;;;12.91;95.27
31911;BME280;18457;52.432;16.914;2022-09-12T02:33:45;100518.70;;;12.97;95.28
31911;BME280;18457;52.432;16.914;2022-09-12T02:36:32;100522.96;;;13.01;94.90
31911;BME280;18457;52.432;16.914;2022-09-12T02:39:06;100522.23;;;12.84;96.22
31911;BME280;18457;52.432;16.914;2022-09-12T02:41:37;100526.66;;;12.87;95.92
31911;BME280;18457;52.432;16.914;2022-09-12T02:44:09;100524.83;;;12.93;95.51
31911;BME280;18457;52.432;16.914;2022-09-12T02:46:43;100520.62;;;12.83;96.54
31911;BME280;18457;52.432;16.914;2022-09-12T02:49:15;100521.34;;;12.88;95.91
31911;BME280;18457;52.432;16.914;2022-09-12T02:51:48;100519.20;;;12.88;96.17
31911;BME280;18457;52.432;16.914;2022-09-12T02:54:21;100525.48;;;12.95;95.65
31911;BME280;18457;52.432;16.914;2022-09-12T02:56:54;100522.70;;;12.86;95.89
31911;BME280;18457;52.432;16.914;2022-09-12T02:59:26;100524.74;;;12.79;96.51
31911;BME280;18457;52.432;16.914;2022-09-12T03:02:10;100522.53;;;12.80;96.81
31911;BME280;18457;52.432;16.914;2022-09-12T03:05:05;100527.39;;;12.87;96.33
31911;BME280;18457;52.432;16.914;2022-09-12T03:08:00;100527.19;;;12.93;95.86
31911;BME280;18457;52.432;16.914;2022-09-12T03:10:44;100527.98;;;12.96;96.01
31911;BME280;18457;52.432;16.914;2022-09-12T03:13:22;100527.64;;;12.91;96.48
31911;BME280;18457;52.432;16.914;2022-09-12T03:16:05;100524.05;;;12.83;97.45
31911;BME280;18457;52.432;16.914;2022-09-12T03:18:52;100524.31;;;12.86;97.56
31911;BME280;18457;52.432;16.914;2022-09-12T03:21:32;100522.05;;;12.90;97.42
31911;BME280;18457;52.432;16.914;2022-09-12T03:24:12;100526.27;;;12.93;97.34
31911;BME280;18457;52.432;16.914;2022-09-12T03:26:48;100527.20;;;12.98;96.99
31911;BME280;18457;52.432;16.914;2022-09-12T03:29:24;100528.63;;;13.06;96.91
31911;BME280;18457;52.432;16.914;2022-09-12T03:31:58;100527.02;;;12.99;96.92
31911;BME280;18457;52.432;16.914;2022-09-12T03:34:30;100531.77;;;12.91;97.78
31911;BME280;18457;52.432;16.914;2022-09-12T03:37:02;100527.67;;;12.89;98.43
31911;BME280;18457;52.432;16.914;2022-09-12T03:39:34;100528.40;;;12.95;98.42
31911;BME280;18457;52.432;16.914;2022-09-12T03:42:06;100534.05;;;13.06;97.29
31911;BME280;18457;52.432;16.914;2022-09-12T03:44:38;100532.26;;;13.05;97.72
31911;BME280;18457;52.432;16.914;2022-09-12T03:47:09;100531.35;;;12.93;98.58
31911;BME280;18457;52.432;16.914;2022-09-12T03:49:41;100533.44;;;13.02;98.75
31911;BME280;18457;52.432;16.914;2022-09-12T03:52:13;100537.59;;;13.08;98.21
31911;BME280;18457;52.432;16.914;2022-09-12T03:54:45;100536.64;;;12.98;99.32
31911;BME280;18457;52.432;16.914;2022-09-12T03:57:16;100533.31;;;13.07;98.98
31911;BME280;18457;52.432;16.914;2022-09-12T03:59:50;100537.34;;;13.11;98.96
31911;BME280;18457;52.432;16.914;2022-09-12T04:02:21;100533.39;;;13.04;99.30
31911;BME280;18457;52.432;16.914;2022-09-12T04:04:53;100530.88;;;13.09;99.60
31911;BME280;18457;52.432;16.914;2022-09-12T04:07:25;100535.77;;;13.09;99.82
31911;BME280;18457;52.432;16.914;2022-09-12T04:09:57;100533.92;;;13.16;99.58
31911;BME280;18457;52.432;16.914;2022-09-12T04:12:30;100535.09;;;13.13;99.62
31911;BME280;18457;52.432;16.914;2022-09-12T04:15:02;100539.02;;;13.10;99.95
31911;BME280;18457;52.432;16.914;2022-09-12T04:17:35;100538.73;;;13.19;99.96
31911;BME280;18457;52.432;16.914;2022-09-12T04:20:08;100539.35;;;13.16;100.00
31911;BME280;18457;52.432;16.914;2022-09-12T04:22:40;100537.10;;;13.24;99.97
31911;BME280;18457;52.432;16.914;2022-09-12T04:25:12;100536.38;;;13.30;99.63
31911;BME280;18457;52.432;16.914;2022-09-12T04:27:44;100537.04;;;13.20;99.98
31911;BME280;18457;52.432;16.914;2022-09-12T04:30:16;100539.59;;;13.26;100.00
31911;BME280;18457;52.432;16.914;2022-09-12T04:32:47;100539.27;;;13.41;99.89
31911;BME280;18457;52.432;16.914;2022-09-12T04:35:19;100536.96;;;13.28;99.98
31911;BME280;18457;52.432;16.914;2022-09-12T04:37:50;100538.36;;;13.30;100.00
31911;BME280;18457;52.432;16.914;2022-09-12T04:40:22;100538.83;;;13.48;99.97
31911;BME280;18457;52.432;16.914;2022-09-12T04:42:54;100536.30;;;13.48;99.98
31911;BME280;18457;52.432;16.914;2022-09-12T04:45:26;100541.44;;;13.47;100.00
31911;BME280;18457;52.432;16.914;2022-09-12T04:47:58;100536.85;;;13.43;100.00
31911;BME280;18457;52.432;16.914;2022-09-12T04:50:30;100535.59;;;13.48;100.00
31911;BME280;18457;52.432;16.914;2022-09-12T04:53:01;100540.60;;;13.44;100.00
31911;BME280;18457;52.432;16.914;2022-09-12T04:55:34;100545.80;;;13.41;100.00
31911;BME280;18457;52.432;16.914;2022-09-12T04:58:06;100544.26;;;13.49;100.00
31911;BME280;18457;52.432;16.914;2022-09-12T05:00:38;100547.83;;;13.56;100.00
31911;BME280;18457;52.432;16.914;2022-09-12T05:03:10;100548.84;;;13.53;100.00
31911;BME280;18457;52.432;16.914;2022-09-12T05:05:41;100544.86;;;13.58;100.00
31911;BME280;18457;52.432;16.914;2022-09-12T05:08:13;100543.73;;;13.59;100.00
31911;BME280;18457;52.432;16.914;2022-09-12T05:10:45;100547.19;;;13.59;100.00
31911;BME280;18457;52.432;16.914;2022-09-12T05:13:17;100550.09;;;13.58;100.00
31911;BME280;18457;52.432;16.914;2022-09-12T05:15:56;100552.09;;;13.64;100.00
31911;BME280;18457;52.432;16.914;2022-09-12T05:18:29;100559.38;;;13.58;100.00
31911;BME280;18457;52.432;16.914;2022-09-12T05:21:03;100552.64;;;13.69;100.00
31911;BME280;18457;52.432;16.914;2022-09-12T05:23:35;100558.30;;;13.68;100.00
31911;BME280;18457;52.432;16.914;2022-09-12T05:26:09;100562.98;;;13.58;100.00
31911;BME280;18457;52.432;16.914;2022-09-12T05:28:43;100566.81;;;13.58;100.00
31911;BME280;18457;52.432;16.914;2022-09-12T05:31:17;100564.13;;;13.67;100.00
31911;BME280;18457;52.432;16.914;2022-09-12T05:33:50;100566.92;;;13.60;100.00
31911;BME280;18457;52.432;16.914;2022-09-12T05:36:25;100568.23;;;13.70;100.00
31911;BME280;18457;52.432;16.914;2022-09-12T05:38:59;100570.50;;;13.67;100.00
31911;BME280;18457;52.432;16.914;2022-09-12T05:41:30;100572.66;;;13.67;100.00
31911;BME280;18457;52.432;16.914;2022-09-12T05:44:04;100571.58;;;13.68;100.00
31911;BME280;18457;52.432;16.914;2022-09-12T05:46:38;100573.02;;;13.78;100.00
31911;BME280;18457;52.432;16.914;2022-09-12T05:49:12;100574.41;;;13.85;100.00
31911;BME280;18457;52.432;16.914;2022-09-12T05:51:44;100577.21;;;13.98;99.69
31911;BME280;18457;52.432;16.914;2022-09-12T05:54:18;100581.99;;;13.86;99.75
31911;BME280;18457;52.432;16.914;2022-09-12T05:56:50;100586.05;;;13.90;99.98
31911;BME280;18457;52.432;16.914;2022-09-12T05:59:22;100587.04;;;13.87;100.00
31911;BME280;18457;52.432;16.914;2022-09-12T06:01:54;100585.73;;;13.83;100.00
31911;BME280;18457;52.432;16.914;2022-09-12T06:04:27;100589.84;;;13.80;100.00
31911;BME280;18457;52.432;16.914;2022-09-12T06:06:59;100589.27;;;13.91;100.00
31911;BME280;18457;52.432;16.914;2022-09-12T06:09:30;100589.48;;;13.95;100.00
31911;BME280;18457;52.432;16.914;2022-09-12T06:12:03;100591.25;;;13.96;100.00
31911;BME280;18457;52.432;16.914;2022-09-12T06:14:34;100591.77;;;14.02;100.00
31911;BME280;18457;52.432;16.914;2022-09-12T06:17:07;100593.21;;;14.03;99.94
31911;BME280;18457;52.432;16.914;2022-09-12T06:19:38;100593.20;;;14.04;99.73
31911;BME280;18457;52.432;16.914;2022-09-12T06:22:10;100594.08;;;14.10;99.78
31911;BME280;18457;52.432;16.914;2022-09-12T06:24:43;100598.52;;;14.07;99.79
31911;BME280;18457;52.432;16.914;2022-09-12T06:27:15;100600.28;;;14.18;99.45
31911;BME280;18457;52.432;16.914;2022-09-12T06:29:46;100598.90;;;14.17;99.49
31911;BME280;18457;52.432;16.914;2022-09-12T06:32:18;100599.98;;;14.17;99.79
31911;BME280;18457;52.432;16.914;2022-09-12T06:34:50;100601.14;;;14.21;100.00
31911;BME280;18457;52.432;16.914;2022-09-12T06:37:22;100602.92;;;14.21;100.00
31911;BME280;18457;52.432;16.914;2022-09-12T06:39:54;100599.06;;;14.22;100.00
31911;BME280;18457;52.432;16.914;2022-09-12T06:42:25;100602.21;;;14.10;100.00
31911;BME280;18457;52.432;16.914;2022-09-12T06:45:00;100598.14;;;14.08;100.00
31911;BME280;18457;52.432;16.914;2022-09-12T06:47:33;100596.46;;;14.19;100.00
31911;BME280;18457;52.432;16.914;2022-09-12T06:50:06;100593.45;;;14.17;100.00
31911;BME280;18457;52.432;16.914;2022-09-12T06:52:37;100598.34;;;14.23;100.00
31911;BME280;18457;52.432;16.914;2022-09-12T06:55:10;100595.31;;;14.31;100.00
31911;BME280;18457;52.432;16.914;2022-09-12T06:57:47;100596.57;;;14.37;100.00
31911;BME280;18457;52.432;16.914;2022-09-12T07:00:19;100597.71;;;14.55;100.00
31911;BME280;18457;52.432;16.914;2022-09-12T07:02:54;100594.63;;;14.50;100.00
31911;BME280;18457;52.432;16.914;2022-09-12T07:05:26;100596.61;;;14.50;100.00
31911;BME280;18457;52.432;16.914;2022-09-12T07:07:57;100594.64;;;14.44;100.00
31911;BME280;18457;52.432;16.914;2022-09-12T07:10:29;100598.54;;;14.52;100.00
31911;BME280;18457;52.432;16.914;2022-09-12T07:13:01;100595.54;;;14.55;100.00
31911;BME280;18457;52.432;16.914;2022-09-12T07:15:35;100592.09;;;14.54;100.00
31911;BME280;18457;52.432;16.914;2022-09-12T07:18:07;100596.89;;;14.62;100.00
31911;BME280;18457;52.432;16.914;2022-09-12T07:20:41;100600.39;;;14.70;100.00
31911;BME280;18457;52.432;16.914;2022-09-12T07:23:12;100600.69;;;14.82;100.00
31911;BME280;18457;52.432;16.914;2022-09-12T07:25:50;100607.52;;;14.94;100.00
31911;BME280;18457;52.432;16.914;2022-09-12T07:28:22;100608.83;;;15.02;99.84
31911;BME280;18457;52.432;16.914;2022-09-12T07:31:00;100607.51;;;15.03;99.67
31911;BME280;18457;52.432;16.914;2022-09-12T07:33:36;100610.63;;;15.02;98.68
31911;BME280;18457;52.432;16.914;2022-09-12T07:36:09;100610.23;;;15.03;98.02
31911;BME280;18457;52.432;16.914;2022-09-12T07:38:40;100616.65;;;15.11;98.88
31911;BME280;18457;52.432;16.914;2022-09-12T07:41:14;100616.50;;;15.06;97.73
31911;BME280;18457;52.432;16.914;2022-09-12T07:43:48;100624.09;;;15.21;96.58
31911;BME280;18457;52.432;16.914;2022-09-12T07:46:22;100622.63;;;15.21;97.02
31911;BME280;18457;52.432;16.914;2022-09-12T07:48:53;100626.38;;;15.18;97.86
31911;BME280;18457;52.432;16.914;2022-09-12T07:51:27;100629.31;;;15.27;97.83
31911;BME280;18457;52.432;16.914;2022-09-12T07:54:00;100626.14;;;15.43;97.09
31911;BME280;18457;52.432;16.914;2022-09-12T07:56:32;100620.06;;;15.40;97.20
31911;BME280;18457;52.432;16.914;2022-09-12T07:59:09;100621.13;;;15.50;96.72
31911;BME280;18457;52.432;16.914;2022-09-12T08:01:41;100621.21;;;15.65;96.38
31911;BME280;18457;52.432;16.914;2022-09-12T08:04:12;100626.13;;;15.66;95.53
31911;BME280;18457;52.432;16.914;2022-09-12T08:06:45;100623.95;;;15.74;94.75
31911;BME280;18457;52.432;16.914;2022-09-12T08:09:17;100628.41;;;15.89;93.86
31911;BME280;18457;52.432;16.914;2022-09-12T08:11:48;100628.50;;;15.69;94.79
31911;BME280;18457;52.432;16.914;2022-09-12T08:14:20;100638.62;;;15.67;95.55
31911;BME280;18457;52.432;16.914;2022-09-12T08:16:52;100643.34;;;15.59;94.40
31911;BME280;18457;52.432;16.914;2022-09-12T08:19:24;100640.30;;;15.53;93.45
31911;BME280;18457;52.432;16.914;2022-09-12T08:21:56;100638.92;;;15.46;94.18
31911;BME280;18457;52.432;16.914;2022-09-12T08:24:27;100642.02;;;15.51;94.26
31911;BME280;18457;52.432;16.914;2022-09-12T08:26:59;100633.48;;;15.64;93.55
31911;BME280;18457;52.432;16.914;2022-09-12T08:29:31;100635.15;;;15.59;93.52
31911;BME280;18457;52.432;16.914;2022-09-12T08:32:03;100641.77;;;15.66;93.21
31911;BME280;18457;52.432;16.914;2022-09-12T08:34:35;100634.41;;;15.81;91.89
31911;BME280;18457;52.432;16.914;2022-09-12T08:37:07;100634.12;;;15.88;91.27
31911;BME280;18457;52.432;16.914;2022-09-12T08:39:39;100630.53;;;16.03;90.79
31911;BME280;18457;52.432;16.914;2022-09-12T08:42:19;100630.98;;;16.05;90.06
31911;BME280;18457;52.432;16.914;2022-09-12T08:45:09;100632.78;;;15.93;90.20
31911;BME280;18457;52.432;16.914;2022-09-12T08:47:46;100631.12;;;15.98;89.11
31911;BME280;18457;52.432;16.914;2022-09-12T08:50:21;100626.63;;;16.09;88.53
31911;BME280;18457;52.432;16.914;2022-09-12T08:52:57;100625.99;;;16.24;88.47
31911;BME280;18457;52.432;16.914;2022-09-12T08:55:35;100630.16;;;16.24;87.80
31911;BME280;18457;52.432;16.914;2022-09-12T08:58:12;100626.43;;;16.18;87.22
31911;BME280;18457;52.432;16.914;2022-09-12T09:01:00;100624.49;;;16.25;86.89
31911;BME280;18457;52.432;16.914;2022-09-12T09:04:07;100628.48;;;16.29;85.53
31911;BME280;18457;52.432;16.914;2022-09-12T09:07:00;100625.75;;;16.29;85.83
31911;BME280;18457;52.432;16.914;2022-09-12T09:09:45;100625.94;;;16.41;85.50
31911;BME280;18457;52.432;16.914;2022-09-12T09:12:27;100627.09;;;16.36;84.67
31911;BME280;18457;52.432;16.914;2022-09-12T09:15:35;100624.87;;;16.33;84.57
31911;BME280;18457;52.432;16.914;2022-09-12T09:18:17;100622.49;;;16.49;84.35
31911;BME280;18457;52.432;16.914;2022-09-12T09:20:54;100629.15;;;16.47;83.55
31911;BME280;18457;52.432;16.914;2022-09-12T09:23:28;100616.67;;;16.53;82.27
31911;BME280;18457;52.432;16.914;2022-09-12T09:26:05;100617.46;;;16.60;81.53
31911;BME280;18457;52.432;16.914;2022-09-12T09:28:43;100611.81;;;16.68;80.11
31911;BME280;18457;52.432;16.914;2022-09-12T09:31:18;100615.39;;;16.78;79.89
31911;BME280;18457;52.432;16.914;2022-09-12T09:33:53;100613.45;;;16.92;79.53
31911;BME280;18457;52.432;16.914;2022-09-12T09:36:33;100607.36;;;17.05;78.03
31911;BME280;18457;52.432;16.914;2022-09-12T09:39:16;100606.59;;;17.13;76.75
31911;BME280;18457;52.432;16.914;2022-09-12T09:41:58;100603.60;;;17.33;76.89
31911;BME280;18457;52.432;16.914;2022-09-12T09:44:31;100607.42;;;17.37;75.39
31911;BME280;18457;52.432;16.914;2022-09-12T09:47:03;100606.00;;;17.48;75.09
31911;BME280;18457;52.432;16.914;2022-09-12T09:49:35;100607.90;;;17.65;75.05
31911;BME280;18457;52.432;16.914;2022-09-12T09:52:09;100612.60;;;17.62;75.98
31911;BME280;18457;52.432;16.914;2022-09-12T09:54:48;100614.27;;;17.58;74.30
31911;BME280;18457;52.432;16.914;2022-09-12T09:57:46;100610.95;;;17.91;72.87
31911;BME280;18457;52.432;16.914;2022-09-12T10:00:24;100603.17;;;18.14;71.24
31911;BME280;18457;52.432;16.914;2022-09-12T10:03:20;100606.92;;;18.15;70.99
31911;BME280;18457;52.432;16.914;2022-09-12T10:05:57;100605.21;;;17.99;69.26
31911;BME280;18457;52.432;16.914;2022-09-12T10:08:31;100610.80;;;17.98;69.03
31911;BME280;18457;52.432;16.914;2022-09-12T10:11:19;100611.80;;;18.10;69.79
31911;BME280;18457;52.432;16.914;2022-09-12T10:13:56;100610.69;;;18.49;68.56
31911;BME280;18457;52.432;16.914;2022-09-12T10:16:31;100611.25;;;18.72;65.88
31911;BME280;18457;52.432;16.914;2022-09-12T10:19:04;100616.05;;;18.82;64.93
31911;BME280;18457;52.432;16.914;2022-09-12T10:21:40;100612.36;;;18.69;65.15
31911;BME280;18457;52.432;16.914;2022-09-12T10:24:21;100606.84;;;18.69;66.08
31911;BME280;18457;52.432;16.914;2022-09-12T10:26:56;100610.56;;;18.68;66.73
31911;BME280;18457;52.432;16.914;2022-09-12T10:29:32;100608.69;;;18.59;66.40
31911;BME280;18457;52.432;16.914;2022-09-12T10:32:07;100608.88;;;18.62;65.84
31911;BME280;18457;52.432;16.914;2022-09-12T10:34:43;100606.72;;;18.65;66.20
31911;BME280;18457;52.432;16.914;2022-09-12T10:37:23;100601.69;;;18.63;66.08
31911;BME280;18457;52.432;16.914;2022-09-12T10:39:58;100599.38;;;18.69;67.18
31911;BME280;18457;52.432;16.914;2022-09-12T10:42:51;100600.81;;;18.82;67.04
31911;BME280;18457;52.432;16.914;2022-09-12T10:45:27;100603.84;;;19.29;63.88
31911;BME280;18457;52.432;16.914;2022-09-12T10:48:01;100600.05;;;19.54;62.02
31911;BME280;18457;52.432;16.914;2022-09-12T10:50:41;100592.58;;;19.81;61.35
31911;BME280;18457;52.432;16.914;2022-09-12T10:53:20;100585.02;;;19.76;62.80
31911;BME280;18457;52.432;16.914;2022-09-12T10:56:02;100594.80;;;19.40;61.81
31911;BME280;18457;52.432;16.914;2022-09-12T10:58:54;100587.18;;;19.16;63.15
31911;BME280;18457;52.432;16.914;2022-09-12T11:01:37;100582.74;;;19.20;63.75
31911;BME280;18457;52.432;16.914;2022-09-12T11:04:21;100580.91;;;19.55;63.08
31911;BME280;18457;52.432;16.914;2022-09-12T11:09:55;100577.25;;;19.89;61.57
31911;BME280;18457;52.432;16.914;2022-09-12T11:12:36;100573.64;;;20.43;61.07
31911;BME280;18457;52.432;16.914;2022-09-12T11:15:30;100572.48;;;20.38;58.73
31911;BME280;18457;52.432;16.914;2022-09-12T11:18:12;100573.91;;;20.41;58.64
31911;BME280;18457;52.432;16.914;2022-09-12T11:20:55;100573.11;;;20.57;58.38
31911;BME280;18457;52.432;16.914;2022-09-12T11:23:46;100572.80;;;20.73;58.25
31911;BME280;18457;52.432;16.914;2022-09-12T11:26:52;100578.48;;;20.79;57.77
31911;BME280;18457;52.432;16.914;2022-09-12T11:29:37;100575.05;;;20.49;57.65
31911;BME280;18457;52.432;16.914;2022-09-12T11:35:23;100572.29;;;20.32;57.55
31911;BME280;18457;52.432;16.914;2022-09-12T11:38:18;100575.33;;;20.21;57.57
31911;BME280;18457;52.432;16.914;2022-09-12T11:40:55;100572.69;;;20.29;57.29
31911;BME280;18457;52.432;16.914;2022-09-12T11:43:37;100571.84;;;20.31;57.25
31911;BME280;18457;52.432;16.914;2022-09-12T11:46:18;100572.08;;;20.33;57.40
31911;BME280;18457;52.432;16.914;2022-09-12T11:48:56;100570.50;;;20.16;57.41
31911;BME280;18457;52.432;16.914;2022-09-12T11:51:34;100569.14;;;20.21;57.93
31911;BME280;18457;52.432;16.914;2022-09-12T11:54:20;100572.52;;;19.91;57.48
31911;BME280;18457;52.432;16.914;2022-09-12T11:56:57;100572.73;;;19.79;57.62
31911;BME280;18457;52.432;16.914;2022-09-12T11:59:36;100572.50;;;19.80;57.39
31911;BME280;18457;52.432;16.914;2022-09-12T12:02:16;100578.30;;;19.87;58.00
31911;BME280;18457;52.432;16.914;2022-09-12T12:05:01;100576.52;;;19.77;58.88
31911;BME280;18457;52.432;16.914;2022-09-12T12:07:39;100576.42;;;19.75;59.24
31911;BME280;18457;52.432;16.914;2022-09-12T12:10:35;100575.81;;;19.76;59.64
31911;BME280;18457;52.432;16.914;2022-09-12T12:13:15;100571.13;;;19.84;59.26
31911;BME280;18457;52.432;16.914;2022-09-12T12:15:51;100574.08;;;19.81;59.06
31911;BME280;18457;52.432;16.914;2022-09-12T12:18:26;100575.21;;;19.71;58.79
31911;BME280;18457;52.432;16.914;2022-09-12T12:21:19;100572.95;;;19.69;59.07
31911;BME280;18457;52.432;16.914;2022-09-12T12:24:02;100577.73;;;19.69;59.00
31911;BME280;18457;52.432;16.914;2022-09-12T12:27:00;100577.84;;;19.64;59.32
31911;BME280;18457;52.432;16.914;2022-09-12T12:29:42;100575.80;;;19.64;59.70
31911;BME280;18457;52.432;16.914;2022-09-12T12:32:25;100568.02;;;19.81;59.76
31911;BME280;18457;52.432;16.914;2022-09-12T12:38:00;100573.05;;;20.07;59.80
31911;BME280;18457;52.432;16.914;2022-09-12T12:40:32;100570.54;;;20.00;60.02
31911;BME280;18457;52.432;16.914;2022-09-12T12:43:13;100573.58;;;19.92;59.96
31911;BME280;18457;52.432;16.914;2022-09-12T12:46:06;100566.45;;;19.89;59.13
31911;BME280;18457;52.432;16.914;2022-09-12T12:49:01;100562.08;;;19.92;58.87
31911;BME280;18457;52.432;16.914;2022-09-12T12:51:59;100556.83;;;19.90;58.58
31911;BME280;18457;52.432;16.914;2022-09-12T12:54:47;100556.34;;;19.95;58.04
31911;BME280;18457;52.432;16.914;2022-09-12T13:00:29;100550.60;;;20.05;56.54
31911;BME280;18457;52.432;16.914;2022-09-12T13:03:10;100552.11;;;20.11;56.71
31911;BME280;18457;52.432;16.914;2022-09-12T13:05:51;100545.44;;;20.15;57.57
31911;BME280;18457;52.432;16.914;2022-09-12T13:08:30;100552.79;;;20.12;57.93
31911;BME280;18457;52.432;16.914;2022-09-12T13:11:07;100547.94;;;20.10;58.62
31911;BME280;18457;52.432;16.914;2022-09-12T13:13:50;100548.23;;;20.05;58.91
31911;BME280;18457;52.432;16.914;2022-09-12T13:16:32;100546.16;;;20.06;59.54
31911;BME280;18457;52.432;16.914;2022-09-12T13:19:07;100547.08;;;19.94;59.49
31911;BME280;18457;52.432;16.914;2022-09-12T13:21:58;100544.05;;;19.83;58.78
31911;BME280;18457;52.432;16.914;2022-09-12T13:24:30;100546.42;;;19.68;59.08
31911;BME280;18457;52.432;16.914;2022-09-12T13:27:13;100538.23;;;19.70;59.64
31911;BME280;18457;52.432;16.914;2022-09-12T13:29:46;100540.77;;;19.68;59.55
31911;BME280;18457;52.432;16.914;2022-09-12T13:32:18;100539.40;;;19.66;59.90
31911;BME280;18457;52.432;16.914;2022-09-12T13:35:02;100543.65;;;19.56;60.20
31911;BME280;18457;52.432;16.914;2022-09-12T13:37:45;100536.91;;;19.53;60.70
31911;BME280;18457;52.432;16.914;2022-09-12T13:40:31;100537.19;;;19.48;59.91
31911;BME280;18457;52.432;16.914;2022-09-12T13:43:13;100535.84;;;19.43;60.32